sensor_id;sensor_type;location;lat;lon;timestamp;P1;durP1;ratioP1;P2;durP2;ratioP2
39190;SDS011;24916;51.676;6.614;2023-07-20T00:01:23;5.65;;;4.25;;
39190;SDS011;24916;51.676;6.614;2023-07-20T00:03:49;9.45;;;4.72;;
39190;SDS011;24916;51.676;6.614;2023-07-20T00:06:29;7.82;;;4.43;;
39190;SDS011;24916;51.676;6.614;2023-07-20T00:08:54;8.32;;;4.95;;
39190;SDS011;24916;51.676;6.614;2023-07-20T00:11:20;6.70;;;4.40;;
39190;SDS011;24916;51.676;6.614;2023-07-20T00:13:45;7.22;;;4.78;;
39190;SDS011;24916;51.676;6.614;2023-07-20T00:16:10;10.45;;;4.38;;
39190;SDS011;24916;51.676;6.614;2023-07-20T00:18:36;6.50;;;4.38;;
39190;SDS011;24916;51.676;6.614;2023-07-20T00:21:01;8.18;;;4.80;;
39190;SDS011;24916;51.676;6.614;2023-07-20T00:23:26;8.15;;;4.72;;
39190;SDS011;24916;51.676;6.614;2023-07-20T00:25:52;9.02;;;4.68;;
39190;SDS011;24916;51.676;6.614;2023-07-20T00:28:17;10.48;;;5.15;;
39190;SDS011;24916;51.676;6.614;2023-07-20T00:30:42;7.00;;;5.05;;
39190;SDS011;24916;51.676;6.614;2023-07-20T00:33:09;9.50;;;5.90;;
39190;SDS011;24916;51.676;6.614;2023-07-20T00:35:35;8.15;;;6.03;;
39190;SDS011;24916;51.676;6.614;2023-07-20T00:38:00;7.88;;;5.00;;
39190;SDS011;24916;51.676;6.614;2023-07-20T00:40:25;7.47;;;4.73;;
39190;SDS011;24916;51.676;6.614;2023-07-20T00:42:51;7.80;;;5.88;;
39190;SDS011;24916;51.676;6.614;2023-07-20T00:45:16;9.68;;;6.13;;
39190;SDS011;24916;51.676;6.614;2023-07-20T00:47:41;8.88;;;5.78;;
39190;SDS011;24916;51.676;6.614;2023-07-20T00:50:07;7.45;;;5.53;;
39190;SDS011;24916;51.676;6.614;2023-07-20T00:52:33;12.65;;;6.03;;
39190;SDS011;24916;51.676;6.614;2023-07-20T00:54:58;7.78;;;5.25;;
39190;SDS011;24916;51.676;6.614;2023-07-20T00:57:24;9.35;;;6.00;;
39190;SDS011;24916;51.676;6.614;2023-07-20T00:59:51;9.40;;;6.47;;
39190;SDS011;24916;51.676;6.614;2023-07-20T01:02:16;11.63;;;6.63;;
39190;SDS011;24916;51.676;6.614;2023-07-20T01:04:41;10.82;;;6.72;;
39190;SDS011;24916;51.676;6.614;2023-07-20T01:07:12;10.57;;;6.25;;
39190;SDS011;24916;51.676;6.614;2023-07-20T01:09:40;9.82;;;6.70;;
39190;SDS011;24916;51.676;6.614;2023-07-20T01:12:08;11.95;;;7.20;;
39190;SDS011;24916;51.676;6.614;2023-07-20T01:14:34;11.05;;;8.02;;
39190;SDS011;24916;51.676;6.614;2023-07-20T01:17:00;7.55;;;6.47;;
39190;SDS011;24916;51.676;6.614;2023-07-20T01:19:25;11.68;;;7.30;;
39190;SDS011;24916;51.676;6.614;2023-07-20T01:21:55;6.65;;;5.90;;
39190;SDS011;24916;51.676;6.614;2023-07-20T01:29:46;10.13;;;7.82;;
39190;SDS011;24916;51.676;6.614;2023-07-20T01:32:18;15.23;;;8.48;;
39190;SDS011;24916;51.676;6.614;2023-07-20T01:34:44;10.10;;;7.55;;
39190;SDS011;24916;51.676;6.614;2023-07-20T01:37:09;9.82;;;6.95;;
39190;SDS011;24916;51.676;6.614;2023-07-20T01:39:35;14.02;;;8.82;;
39190;SDS011;24916;51.676;6.614;2023-07-20T01:42:01;16.38;;;8.98;;
39190;SDS011;24916;51.676;6.614;2023-07-20T01:44:27;12.87;;;8.80;;
39190;SDS011;24916;51.676;6.614;2023-07-20T01:46:52;15.27;;;9.80;;
39190;SDS011;24916;51.676;6.614;2023-07-20T01:49:17;10.75;;;8.25;;
39190;SDS011;24916;51.676;6.614;2023-07-20T01:51:42;10.90;;;7.90;;
39190;SDS011;24916;51.676;6.614;2023-07-20T01:54:07;13.23;;;10.32;;
39190;SDS011;24916;51.676;6.614;2023-07-20T01:56:33;15.65;;;11.30;;
39190;SDS011;24916;51.676;6.614;2023-07-20T01:58:58;11.23;;;8.95;;
39190;SDS011;24916;51.676;6.614;2023-07-20T02:01:23;17.90;;;13.20;;
39190;SDS011;24916;51.676;6.614;2023-07-20T02:03:49;16.38;;;13.23;;
39190;SDS011;24916;51.676;6.614;2023-07-20T02:06:14;16.13;;;13.10;;
39190;SDS011;24916;51.676;6.614;2023-07-20T02:08:39;17.48;;;13.50;;
39190;SDS011;24916;51.676;6.614;2023-07-20T02:11:04;17.40;;;13.20;;
39190;SDS011;24916;51.676;6.614;2023-07-20T02:13:30;20.25;;;14.25;;
39190;SDS011;24916;51.676;6.614;2023-07-20T02:15:55;18.38;;;14.32;;
39190;SDS011;24916;51.676;6.614;2023-07-20T02:18:20;16.05;;;14.27;;
39190;SDS011;24916;51.676;6.614;2023-07-20T02:20:45;17.52;;;11.02;;
39190;SDS011;24916;51.676;6.614;2023-07-20T02:23:10;19.50;;;14.23;;
39190;SDS011;24916;51.676;6.614;2023-07-20T02:25:36;19.20;;;15.45;;
39190;SDS011;24916;51.676;6.614;2023-07-20T02:28:01;15.73;;;13.15;;
39190;SDS011;24916;51.676;6.614;2023-07-20T02:30:27;18.75;;;14.77;;
39190;SDS011;24916;51.676;6.614;2023-07-20T02:32:52;20.42;;;15.50;;
39190;SDS011;24916;51.676;6.614;2023-07-20T02:35:18;20.58;;;15.50;;
39190;SDS011;24916;51.676;6.614;2023-07-20T02:37:43;21.20;;;15.40;;
39190;SDS011;24916;51.676;6.614;2023-07-20T02:40:09;13.45;;;11.95;;
39190;SDS011;24916;51.676;6.614;2023-07-20T02:42:34;18.38;;;13.60;;
39190;SDS011;24916;51.676;6.614;2023-07-20T02:44:59;10.68;;;9.50;;
39190;SDS011;24916;51.676;6.614;2023-07-20T02:47:25;9.15;;;7.80;;
39190;SDS011;24916;51.676;6.614;2023-07-20T02:49:50;9.82;;;8.10;;
39190;SDS011;24916;51.676;6.614;2023-07-20T02:52:15;14.52;;;9.25;;
39190;SDS011;24916;51.676;6.614;2023-07-20T02:54:40;8.37;;;6.87;;
39190;SDS011;24916;51.676;6.614;2023-07-20T02:57:06;11.10;;;8.43;;
39190;SDS011;24916;51.676;6.614;2023-07-20T02:59:31;10.05;;;8.23;;
39190;SDS011;24916;51.676;6.614;2023-07-20T03:01:56;10.35;;;9.10;;
39190;SDS011;24916;51.676;6.614;2023-07-20T03:04:22;12.75;;;7.55;;
39190;SDS011;24916;51.676;6.614;2023-07-20T03:06:48;11.10;;;8.68;;
39190;SDS011;24916;51.676;6.614;2023-07-20T03:09:13;12.20;;;8.77;;
39190;SDS011;24916;51.676;6.614;2023-07-20T03:11:38;11.52;;;7.40;;
39190;SDS011;24916;51.676;6.614;2023-07-20T03:14:04;13.30;;;8.43;;
39190;SDS011;24916;51.676;6.614;2023-07-20T03:16:29;8.83;;;7.93;;
39190;SDS011;24916;51.676;6.614;2023-07-20T03:18:57;11.20;;;8.60;;
39190;SDS011;24916;51.676;6.614;2023-07-20T03:21:22;13.43;;;8.68;;
39190;SDS011;24916;51.676;6.614;2023-07-20T03:23:48;14.18;;;9.05;;
39190;SDS011;24916;51.676;6.614;2023-07-20T03:26:13;9.98;;;6.65;;
39190;SDS011;24916;51.676;6.614;2023-07-20T03:28:38;12.05;;;8.35;;
39190;SDS011;24916;51.676;6.614;2023-07-20T03:31:04;9.50;;;6.53;;
39190;SDS011;24916;51.676;6.614;2023-07-20T03:33:29;15.27;;;8.05;;
39190;SDS011;24916;51.676;6.614;2023-07-20T03:35:55;9.93;;;6.65;;
39190;SDS011;24916;51.676;6.614;2023-07-20T03:38:21;9.73;;;7.93;;
39190;SDS011;24916;51.676;6.614;2023-07-20T03:40:53;8.30;;;6.22;;
39190;SDS011;24916;51.676;6.614;2023-07-20T03:43:18;8.93;;;6.22;;
39190;SDS011;24916;51.676;6.614;2023-07-20T03:45:43;8.23;;;7.43;;
39190;SDS011;24916;51.676;6.614;2023-07-20T03:48:10;8.27;;;6.18;;
39190;SDS011;24916;51.676;6.614;2023-07-20T03:50:35;7.95;;;5.82;;
39190;SDS011;24916;51.676;6.614;2023-07-20T03:53:01;7.85;;;7.05;;
39190;SDS011;24916;51.676;6.614;2023-07-20T03:55:26;8.00;;;6.17;;
39190;SDS011;24916;51.676;6.614;2023-07-20T03:57:51;9.35;;;7.05;;
39190;SDS011;24916;51.676;6.614;2023-07-20T04:00:17;7.32;;;5.32;;
39190;SDS011;24916;51.676;6.614;2023-07-20T04:02:42;5.95;;;5.35;;
39190;SDS011;24916;51.676;6.614;2023-07-20T04:05:08;10.95;;;6.55;;
39190;SDS011;24916;51.676;6.614;2023-07-20T04:07:33;8.55;;;6.85;;
39190;SDS011;24916;51.676;6.614;2023-07-20T04:09:58;7.03;;;4.83;;
39190;SDS011;24916;51.676;6.614;2023-07-20T04:12:23;8.90;;;6.68;;
39190;SDS011;24916;51.676;6.614;2023-07-20T04:14:48;7.78;;;5.63;;
39190;SDS011;24916;51.676;6.614;2023-07-20T04:17:14;7.13;;;5.55;;
39190;SDS011;24916;51.676;6.614;2023-07-20T04:19:39;5.82;;;5.05;;
39190;SDS011;24916;51.676;6.614;2023-07-20T04:22:04;7.40;;;6.22;;
39190;SDS011;24916;51.676;6.614;2023-07-20T04:24:29;5.75;;;4.75;;
39190;SDS011;24916;51.676;6.614;2023-07-20T04:26:55;5.88;;;5.00;;
39190;SDS011;24916;51.676;6.614;2023-07-20T04:29:20;6.93;;;4.88;;
39190;SDS011;24916;51.676;6.614;2023-07-20T04:31:45;6.57;;;5.70;;
39190;SDS011;24916;51.676;6.614;2023-07-20T04:34:10;5.80;;;5.28;;
39190;SDS011;24916;51.676;6.614;2023-07-20T04:36:36;6.28;;;5.68;;
39190;SDS011;24916;51.676;6.614;2023-07-20T04:39:01;7.45;;;5.72;;
39190;SDS011;24916;51.676;6.614;2023-07-20T04:41:26;6.43;;;4.88;;
39190;SDS011;24916;51.676;6.614;2023-07-20T04:43:51;7.30;;;5.70;;
39190;SDS011;24916;51.676;6.614;2023-07-20T04:46:17;5.95;;;4.90;;
39190;SDS011;24916;51.676;6.614;2023-07-20T04:48:43;7.57;;;5.10;;
39190;SDS011;24916;51.676;6.614;2023-07-20T04:51:09;4.63;;;4.15;;
39190;SDS011;24916;51.676;6.614;2023-07-20T04:53:35;4.80;;;4.20;;
39190;SDS011;24916;51.676;6.614;2023-07-20T04:56:00;4.97;;;3.42;;
39190;SDS011;24916;51.676;6.614;2023-07-20T04:58:25;5.00;;;4.03;;
39190;SDS011;24916;51.676;6.614;2023-07-20T05:00:51;5.22;;;3.70;;
39190;SDS011;24916;51.676;6.614;2023-07-20T05:03:16;4.63;;;4.22;;
39190;SDS011;24916;51.676;6.614;2023-07-20T05:05:42;3.65;;;3.25;;
39190;SDS011;24916;51.676;6.614;2023-07-20T05:08:07;4.28;;;3.53;;
39190;SDS011;24916;51.676;6.614;2023-07-20T05:10:32;4.72;;;3.75;;
39190;SDS011;24916;51.676;6.614;2023-07-20T05:12:58;3.90;;;3.50;;
39190;SDS011;24916;51.676;6.614;2023-07-20T05:15:23;4.47;;;3.92;;
39190;SDS011;24916;51.676;6.614;2023-07-20T05:17:48;3.78;;;3.45;;
39190;SDS011;24916;51.676;6.614;2023-07-20T05:20:14;3.88;;;3.20;;
39190;SDS011;24916;51.676;6.614;2023-07-20T05:22:39;4.13;;;3.40;;
39190;SDS011;24916;51.676;6.614;2023-07-20T05:25:08;3.60;;;2.92;;
39190;SDS011;24916;51.676;6.614;2023-07-20T05:27:35;3.30;;;3.00;;
39190;SDS011;24916;51.676;6.614;2023-07-20T05:30:01;4.70;;;2.97;;
39190;SDS011;24916;51.676;6.614;2023-07-20T05:32:26;5.32;;;3.70;;
39190;SDS011;24916;51.676;6.614;2023-07-20T05:34:54;4.05;;;3.03;;
39190;SDS011;24916;51.676;6.614;2023-07-20T05:37:19;5.93;;;2.92;;
39190;SDS011;24916;51.676;6.614;2023-07-20T05:39:45;5.80;;;3.05;;
39190;SDS011;24916;51.676;6.614;2023-07-20T05:42:10;5.03;;;3.23;;
39190;SDS011;24916;51.676;6.614;2023-07-20T05:44:35;5.18;;;3.22;;
39190;SDS011;24916;51.676;6.614;2023-07-20T05:47:00;3.60;;;3.20;;
39190;SDS011;24916;51.676;6.614;2023-07-20T05:49:27;3.40;;;2.97;;
39190;SDS011;24916;51.676;6.614;2023-07-20T05:51:54;2.78;;;2.58;;
39190;SDS011;24916;51.676;6.614;2023-07-20T05:54:19;3.50;;;2.78;;
39190;SDS011;24916;51.676;6.614;2023-07-20T05:56:45;6.25;;;2.70;;
39190;SDS011;24916;51.676;6.614;2023-07-20T05:59:10;8.95;;;2.75;;
39190;SDS011;24916;51.676;6.614;2023-07-20T06:01:35;3.43;;;2.80;;
39190;SDS011;24916;51.676;6.614;2023-07-20T06:04:01;3.75;;;2.50;;
39190;SDS011;24916;51.676;6.614;2023-07-20T06:06:28;3.00;;;2.70;;
39190;SDS011;24916;51.676;6.614;2023-07-20T06:08:53;3.72;;;2.65;;
39190;SDS011;24916;51.676;6.614;2023-07-20T06:11:19;3.90;;;2.40;;
39190;SDS011;24916;51.676;6.614;2023-07-20T06:13:45;3.08;;;2.17;;
39190;SDS011;24916;51.676;6.614;2023-07-20T06:16:10;2.90;;;2.28;;
39190;SDS011;24916;51.676;6.614;2023-07-20T06:18:35;4.53;;;2.77;;
39190;SDS011;24916;51.676;6.614;2023-07-20T06:21:00;2.45;;;2.20;;
39190;SDS011;24916;51.676;6.614;2023-07-20T06:23:26;2.08;;;1.80;;
39190;SDS011;24916;51.676;6.614;2023-07-20T06:25:51;8.47;;;6.73;;
39190;SDS011;24916;51.676;6.614;2023-07-20T06:28:16;2.08;;;1.88;;
39190;SDS011;24916;51.676;6.614;2023-07-20T06:30:43;3.35;;;2.45;;
39190;SDS011;24916;51.676;6.614;2023-07-20T06:33:08;2.67;;;1.90;;
39190;SDS011;24916;51.676;6.614;2023-07-20T06:35:33;3.07;;;2.20;;
39190;SDS011;24916;51.676;6.614;2023-07-20T06:37:59;2.72;;;1.67;;
39190;SDS011;24916;51.676;6.614;2023-07-20T06:40:25;1.77;;;1.67;;
39190;SDS011;24916;51.676;6.614;2023-07-20T06:42:50;1.70;;;1.33;;
39190;SDS011;24916;51.676;6.614;2023-07-20T06:45:16;2.45;;;1.40;;
39190;SDS011;24916;51.676;6.614;2023-07-20T06:47:41;3.08;;;1.60;;
39190;SDS011;24916;51.676;6.614;2023-07-20T06:50:07;3.60;;;2.92;;
39190;SDS011;24916;51.676;6.614;2023-07-20T06:52:32;1.80;;;1.50;;
39190;SDS011;24916;51.676;6.614;2023-07-20T06:54:58;2.53;;;1.20;;
39190;SDS011;24916;51.676;6.614;2023-07-20T06:57:23;3.22;;;1.63;;
39190;SDS011;24916;51.676;6.614;2023-07-20T06:59:48;3.28;;;1.30;;
39190;SDS011;24916;51.676;6.614;2023-07-20T07:02:13;1.27;;;1.17;;
39190;SDS011;24916;51.676;6.614;2023-07-20T07:04:39;3.15;;;1.55;;
39190;SDS011;24916;51.676;6.614;2023-07-20T07:07:04;3.42;;;1.45;;
39190;SDS011;24916;51.676;6.614;2023-07-20T07:09:29;1.37;;;1.03;;
39190;SDS011;24916;51.676;6.614;2023-07-20T07:11:54;7.00;;;2.90;;
39190;SDS011;24916;51.676;6.614;2023-07-20T07:14:20;4.07;;;2.72;;
39190;SDS011;24916;51.676;6.614;2023-07-20T07:16:45;1.88;;;1.23;;
39190;SDS011;24916;51.676;6.614;2023-07-20T07:19:10;2.80;;;1.30;;
39190;SDS011;24916;51.676;6.614;2023-07-20T07:21:36;3.65;;;1.50;;
39190;SDS011;24916;51.676;6.614;2023-07-20T07:24:01;3.67;;;1.30;;
39190;SDS011;24916;51.676;6.614;2023-07-20T07:26:26;1.67;;;1.20;;
39190;SDS011;24916;51.676;6.614;2023-07-20T07:28:51;5.05;;;1.77;;
39190;SDS011;24916;51.676;6.614;2023-07-20T07:31:16;3.40;;;3.10;;
39190;SDS011;24916;51.676;6.614;2023-07-20T07:33:42;3.53;;;3.20;;
39190;SDS011;24916;51.676;6.614;2023-07-20T07:36:07;5.70;;;1.85;;
39190;SDS011;24916;51.676;6.614;2023-07-20T07:38:33;1.70;;;1.10;;
39190;SDS011;24916;51.676;6.614;2023-07-20T07:40:58;2.22;;;1.40;;
39190;SDS011;24916;51.676;6.614;2023-07-20T07:43:24;2.28;;;1.25;;
39190;SDS011;24916;51.676;6.614;2023-07-20T07:45:49;2.10;;;1.52;;
39190;SDS011;24916;51.676;6.614;2023-07-20T07:48:14;2.28;;;1.23;;
39190;SDS011;24916;51.676;6.614;2023-07-20T07:50:40;3.00;;;1.00;;
39190;SDS011;24916;51.676;6.614;2023-07-20T07:53:05;2.95;;;0.90;;
39190;SDS011;24916;51.676;6.614;2023-07-20T07:55:30;1.13;;;0.70;;
39190;SDS011;24916;51.676;6.614;2023-07-20T07:57:56;1.67;;;0.70;;
39190;SDS011;24916;51.676;6.614;2023-07-20T08:00:21;1.83;;;0.97;;
39190;SDS011;24916;51.676;6.614;2023-07-20T08:02:46;1.15;;;0.85;;
39190;SDS011;24916;51.676;6.614;2023-07-20T08:05:13;1.98;;;0.60;;
39190;SDS011;24916;51.676;6.614;2023-07-20T08:07:38;2.70;;;1.20;;
39190;SDS011;24916;51.676;6.614;2023-07-20T08:10:04;0.85;;;0.70;;
39190;SDS011;24916;51.676;6.614;2023-07-20T08:12:30;4.40;;;1.10;;
39190;SDS011;24916;51.676;6.614;2023-07-20T08:14:55;1.42;;;0.90;;
39190;SDS011;24916;51.676;6.614;2023-07-20T08:17:20;1.23;;;0.55;;
39190;SDS011;24916;51.676;6.614;2023-07-20T08:19:46;1.63;;;0.85;;
39190;SDS011;24916;51.676;6.614;2023-07-20T08:22:11;5.88;;;4.38;;
39190;SDS011;24916;51.676;6.614;2023-07-20T08:24:39;1.90;;;0.77;;
39190;SDS011;24916;51.676;6.614;2023-07-20T08:27:04;6.30;;;5.68;;
39190;SDS011;24916;51.676;6.614;2023-07-20T08:29:29;4.13;;;1.20;;
39190;SDS011;24916;51.676;6.614;2023-07-20T08:31:55;3.28;;;1.38;;
39190;SDS011;24916;51.676;6.614;2023-07-20T08:34:20;4.73;;;2.27;;
39190;SDS011;24916;51.676;6.614;2023-07-20T08:36:45;2.20;;;0.80;;
39190;SDS011;24916;51.676;6.614;2023-07-20T08:39:10;2.55;;;1.50;;
39190;SDS011;24916;51.676;6.614;2023-07-20T08:41:36;1.95;;;1.08;;
39190;SDS011;24916;51.676;6.614;2023-07-20T08:44:02;2.70;;;0.65;;
39190;SDS011;24916;51.676;6.614;2023-07-20T08:46:27;1.17;;;0.73;;
39190;SDS011;24916;51.676;6.614;2023-07-20T08:48:53;1.23;;;0.60;;
39190;SDS011;24916;51.676;6.614;2023-07-20T08:51:19;1.17;;;0.73;;
39190;SDS011;24916;51.676;6.614;2023-07-20T08:53:46;1.02;;;0.60;;
39190;SDS011;24916;51.676;6.614;2023-07-20T08:56:12;10.55;;;7.95;;
39190;SDS011;24916;51.676;6.614;2023-07-20T08:58:39;0.93;;;0.80;;
39190;SDS011;24916;51.676;6.614;2023-07-20T09:01:04;3.03;;;0.93;;
39190;SDS011;24916;51.676;6.614;2023-07-20T09:03:29;5.18;;;0.95;;
39190;SDS011;24916;51.676;6.614;2023-07-20T09:05:55;2.22;;;0.70;;
39190;SDS011;24916;51.676;6.614;2023-07-20T09:08:20;2.17;;;0.85;;
39190;SDS011;24916;51.676;6.614;2023-07-20T09:10:45;1.45;;;0.70;;
39190;SDS011;24916;51.676;6.614;2023-07-20T09:13:14;1.58;;;0.55;;
39190;SDS011;24916;51.676;6.614;2023-07-20T09:15:39;1.10;;;0.55;;
39190;SDS011;24916;51.676;6.614;2023-07-20T09:18:10;1.90;;;0.75;;
39190;SDS011;24916;51.676;6.614;2023-07-20T09:20:36;6.78;;;0.70;;
39190;SDS011;24916;51.676;6.614;2023-07-20T09:23:04;1.30;;;0.57;;
39190;SDS011;24916;51.676;6.614;2023-07-20T09:25:29;1.17;;;0.57;;
39190;SDS011;24916;51.676;6.614;2023-07-20T09:27:55;0.90;;;0.43;;
39190;SDS011;24916;51.676;6.614;2023-07-20T09:30:21;1.75;;;0.50;;
39190;SDS011;24916;51.676;6.614;2023-07-20T09:32:49;0.77;;;0.40;;
39190;SDS011;24916;51.676;6.614;2023-07-20T09:35:19;2.53;;;0.70;;
39190;SDS011;24916;51.676;6.614;2023-07-20T09:40:14;2.10;;;0.82;;
39190;SDS011;24916;51.676;6.614;2023-07-20T09:42:40;0.93;;;0.50;;
39190;SDS011;24916;51.676;6.614;2023-07-20T09:45:06;0.75;;;0.50;;
39190;SDS011;24916;51.676;6.614;2023-07-20T09:47:33;2.28;;;0.60;;
39190;SDS011;24916;51.676;6.614;2023-07-20T09:50:00;0.80;;;0.40;;
39190;SDS011;24916;51.676;6.614;2023-07-20T09:52:25;1.08;;;0.43;;
39190;SDS011;24916;51.676;6.614;2023-07-20T09:54:51;0.90;;;0.50;;
39190;SDS011;24916;51.676;6.614;2023-07-20T09:57:16;2.83;;;0.80;;
39190;SDS011;24916;51.676;6.614;2023-07-20T09:59:42;2.03;;;0.43;;
39190;SDS011;24916;51.676;6.614;2023-07-20T10:02:20;0.40;;;0.40;;
39190;SDS011;24916;51.676;6.614;2023-07-20T10:04:46;0.32;;;0.32;;
39190;SDS011;24916;51.676;6.614;2023-07-20T10:07:12;2.58;;;1.38;;
39190;SDS011;24916;51.676;6.614;2023-07-20T10:09:39;1.85;;;0.88;;
39190;SDS011;24916;51.676;6.614;2023-07-20T10:12:06;2.00;;;0.95;;
39190;SDS011;24916;51.676;6.614;2023-07-20T10:14:32;2.85;;;1.75;;
39190;SDS011;24916;51.676;6.614;2023-07-20T10:17:00;1.73;;;0.90;;
39190;SDS011;24916;51.676;6.614;2023-07-20T10:19:46;1.27;;;0.70;;
39190;SDS011;24916;51.676;6.614;2023-07-20T10:22:14;0.80;;;0.50;;
39190;SDS011;24916;51.676;6.614;2023-07-20T10:24:40;0.30;;;0.30;;
39190;SDS011;24916;51.676;6.614;2023-07-20T10:27:06;1.60;;;0.60;;
39190;SDS011;24916;51.676;6.614;2023-07-20T10:29:31;1.00;;;0.50;;
39190;SDS011;24916;51.676;6.614;2023-07-20T10:31:57;1.27;;;0.68;;
39190;SDS011;24916;51.676;6.614;2023-07-20T10:34:23;1.17;;;0.60;;
39190;SDS011;24916;51.676;6.614;2023-07-20T10:36:48;1.27;;;0.40;;
39190;SDS011;24916;51.676;6.614;2023-07-20T10:41:49;0.55;;;0.40;;
39190;SDS011;24916;51.676;6.614;2023-07-20T10:44:14;2.22;;;0.50;;
39190;SDS011;24916;51.676;6.614;2023-07-20T10:46:44;1.33;;;0.50;;
39190;SDS011;24916;51.676;6.614;2023-07-20T10:49:10;0.93;;;0.50;;
39190;SDS011;24916;51.676;6.614;2023-07-20T10:51:42;0.65;;;0.22;;
39190;SDS011;24916;51.676;6.614;2023-07-20T10:56:43;1.95;;;0.50;;
39190;SDS011;24916;51.676;6.614;2023-07-20T10:59:18;0.77;;;0.30;;
39190;SDS011;24916;51.676;6.614;2023-07-20T11:01:47;2.03;;;0.50;;
39190;SDS011;24916;51.676;6.614;2023-07-20T11:04:14;1.35;;;0.45;;
39190;SDS011;24916;51.676;6.614;2023-07-20T11:06:43;0.95;;;0.40;;
39190;SDS011;24916;51.676;6.614;2023-07-20T11:09:09;3.40;;;3.05;;
39190;SDS011;24916;51.676;6.614;2023-07-20T11:11:44;3.00;;;1.00;;
39190;SDS011;24916;51.676;6.614;2023-07-20T11:14:10;0.88;;;0.40;;
39190;SDS011;24916;51.676;6.614;2023-07-20T11:16:37;0.82;;;0.50;;
39190;SDS011;24916;51.676;6.614;2023-07-20T11:19:03;0.38;;;0.38;;
39190;SDS011;24916;51.676;6.614;2023-07-20T11:21:29;0.80;;;0.38;;
39190;SDS011;24916;51.676;6.614;2023-07-20T11:23:55;0.45;;;0.30;;
39190;SDS011;24916;51.676;6.614;2023-07-20T11:26:20;1.02;;;0.30;;
39190;SDS011;24916;51.676;6.614;2023-07-20T11:28:49;2.20;;;0.50;;
39190;SDS011;24916;51.676;6.614;2023-07-20T11:31:14;1.77;;;0.60;;
39190;SDS011;24916;51.676;6.614;2023-07-20T11:33:41;0.63;;;0.43;;
39190;SDS011;24916;51.676;6.614;2023-07-20T11:36:08;1.38;;;0.60;;
39190;SDS011;24916;51.676;6.614;2023-07-20T11:38:33;2.65;;;2.35;;
39190;SDS011;24916;51.676;6.614;2023-07-20T11:40:58;7.70;;;6.90;;
39190;SDS011;24916;51.676;6.614;2023-07-20T11:43:24;1.23;;;0.70;;
39190;SDS011;24916;51.676;6.614;2023-07-20T11:45:49;2.13;;;1.33;;
39190;SDS011;24916;51.676;6.614;2023-07-20T11:48:15;2.53;;;1.70;;
39190;SDS011;24916;51.676;6.614;2023-07-20T11:50:40;2.05;;;0.50;;
39190;SDS011;24916;51.676;6.614;2023-07-20T11:53:06;1.17;;;0.40;;
39190;SDS011;24916;51.676;6.614;2023-07-20T11:55:31;1.25;;;0.30;;
39190;SDS011;24916;51.676;6.614;2023-07-20T11:58:00;2.10;;;0.73;;
39190;SDS011;24916;51.676;6.614;2023-07-20T12:00:26;2.28;;;1.35;;
39190;SDS011;24916;51.676;6.614;2023-07-20T12:02:53;1.63;;;1.48;;
39190;SDS011;24916;51.676;6.614;2023-07-20T12:05:18;1.40;;;0.70;;
39190;SDS011;24916;51.676;6.614;2023-07-20T12:07:44;0.60;;;0.40;;
39190;SDS011;24916;51.676;6.614;2023-07-20T12:10:10;1.07;;;0.40;;
39190;SDS011;24916;51.676;6.614;2023-07-20T12:12:40;1.25;;;0.50;;
39190;SDS011;24916;51.676;6.614;2023-07-20T12:15:39;0.75;;;0.40;;
39190;SDS011;24916;51.676;6.614;2023-07-20T12:18:00;1.73;;;0.45;;
39190;SDS011;24916;51.676;6.614;2023-07-20T12:23:12;0.75;;;0.35;;
39190;SDS011;24916;51.676;6.614;2023-07-20T12:25:42;1.23;;;0.47;;
39190;SDS011;24916;51.676;6.614;2023-07-20T12:28:08;0.68;;;0.40;;
39190;SDS011;24916;51.676;6.614;2023-07-20T12:30:33;2.72;;;1.80;;
39190;SDS011;24916;51.676;6.614;2023-07-20T12:32:59;0.70;;;0.57;;
39190;SDS011;24916;51.676;6.614;2023-07-20T12:35:24;1.80;;;0.67;;
39190;SDS011;24916;51.676;6.614;2023-07-20T12:37:49;1.70;;;0.80;;
39190;SDS011;24916;51.676;6.614;2023-07-20T12:40:16;1.95;;;0.50;;
39190;SDS011;24916;51.676;6.614;2023-07-20T12:42:41;1.73;;;0.40;;
39190;SDS011;24916;51.676;6.614;2023-07-20T12:45:07;0.80;;;0.40;;
39190;SDS011;24916;51.676;6.614;2023-07-20T12:47:32;1.30;;;0.50;;
39190;SDS011;24916;51.676;6.614;2023-07-20T12:49:57;0.45;;;0.40;;
39190;SDS011;24916;51.676;6.614;2023-07-20T12:52:23;1.00;;;0.50;;
39190;SDS011;24916;51.676;6.614;2023-07-20T12:54:48;0.27;;;0.20;;
39190;SDS011;24916;51.676;6.614;2023-07-20T12:57:13;1.43;;;0.50;;
39190;SDS011;24916;51.676;6.614;2023-07-20T12:59:38;4.47;;;0.60;;
39190;SDS011;24916;51.676;6.614;2023-07-20T13:02:03;1.33;;;0.40;;
39190;SDS011;24916;51.676;6.614;2023-07-20T13:04:29;1.15;;;0.43;;
39190;SDS011;24916;51.676;6.614;2023-07-20T13:06:55;1.10;;;0.57;;
39190;SDS011;24916;51.676;6.614;2023-07-20T13:09:20;0.77;;;0.32;;
39190;SDS011;24916;51.676;6.614;2023-07-20T13:11:45;0.73;;;0.40;;
39190;SDS011;24916;51.676;6.614;2023-07-20T13:14:11;0.93;;;0.40;;
39190;SDS011;24916;51.676;6.614;2023-07-20T13:16:36;0.80;;;0.30;;
39190;SDS011;24916;51.676;6.614;2023-07-20T13:19:02;3.10;;;0.38;;
39190;SDS011;24916;51.676;6.614;2023-07-20T13:21:27;1.33;;;0.30;;
39190;SDS011;24916;51.676;6.614;2023-07-20T13:23:52;3.10;;;0.40;;
39190;SDS011;24916;51.676;6.614;2023-07-20T13:26:17;10.85;;;9.80;;
39190;SDS011;24916;51.676;6.614;2023-07-20T13:28:43;0.60;;;0.60;;
39190;SDS011;24916;51.676;6.614;2023-07-20T13:31:08;0.97;;;0.80;;
39190;SDS011;24916;51.676;6.614;2023-07-20T13:33:35;1.13;;;0.52;;
39190;SDS011;24916;51.676;6.614;2023-07-20T13:36:00;0.90;;;0.40;;
39190;SDS011;24916;51.676;6.614;2023-07-20T13:38:26;1.08;;;0.65;;
39190;SDS011;24916;51.676;6.614;2023-07-20T13:40:51;2.43;;;0.40;;
39190;SDS011;24916;51.676;6.614;2023-07-20T13:43:16;1.40;;;0.40;;
39190;SDS011;24916;51.676;6.614;2023-07-20T13:45:42;1.42;;;0.60;;
39190;SDS011;24916;51.676;6.614;2023-07-20T13:48:07;1.07;;;0.50;;
39190;SDS011;24916;51.676;6.614;2023-07-20T13:50:32;0.50;;;0.30;;
39190;SDS011;24916;51.676;6.614;2023-07-20T13:52:57;1.33;;;0.50;;
39190;SDS011;24916;51.676;6.614;2023-07-20T13:55:23;1.10;;;0.60;;
39190;SDS011;24916;51.676;6.614;2023-07-20T13:57:48;1.13;;;0.50;;
39190;SDS011;24916;51.676;6.614;2023-07-20T14:00:13;3.70;;;3.10;;
39190;SDS011;24916;51.676;6.614;2023-07-20T14:02:38;1.80;;;1.10;;
39190;SDS011;24916;51.676;6.614;2023-07-20T14:05:04;1.83;;;1.42;;
39190;SDS011;24916;51.676;6.614;2023-07-20T14:07:29;3.35;;;0.52;;
39190;SDS011;24916;51.676;6.614;2023-07-20T14:09:54;2.92;;;0.73;;
39190;SDS011;24916;51.676;6.614;2023-07-20T14:12:19;0.98;;;0.77;;
39190;SDS011;24916;51.676;6.614;2023-07-20T14:14:45;1.70;;;0.80;;
39190;SDS011;24916;51.676;6.614;2023-07-20T14:17:10;1.73;;;1.17;;
39190;SDS011;24916;51.676;6.614;2023-07-20T14:19:37;0.90;;;0.47;;
39190;SDS011;24916;51.676;6.614;2023-07-20T14:22:02;5.95;;;1.60;;
39190;SDS011;24916;51.676;6.614;2023-07-20T14:24:28;4.40;;;2.55;;
39190;SDS011;24916;51.676;6.614;2023-07-20T14:26:54;8.90;;;4.75;;
39190;SDS011;24916;51.676;6.614;2023-07-20T14:29:19;1.92;;;1.50;;
39190;SDS011;24916;51.676;6.614;2023-07-20T14:31:45;3.05;;;0.80;;
39190;SDS011;24916;51.676;6.614;2023-07-20T14:34:10;5.85;;;2.92;;
39190;SDS011;24916;51.676;6.614;2023-07-20T14:36:35;2.73;;;1.23;;
39190;SDS011;24916;51.676;6.614;2023-07-20T14:39:00;1.17;;;0.70;;
39190;SDS011;24916;51.676;6.614;2023-07-20T14:41:26;2.33;;;0.77;;
39190;SDS011;24916;51.676;6.614;2023-07-20T14:43:51;1.67;;;0.50;;
39190;SDS011;24916;51.676;6.614;2023-07-20T14:46:16;0.75;;;0.40;;
39190;SDS011;24916;51.676;6.614;2023-07-20T14:48:41;1.02;;;0.63;;
39190;SDS011;24916;51.676;6.614;2023-07-20T14:51:07;0.38;;;0.38;;
39190;SDS011;24916;51.676;6.614;2023-07-20T14:53:32;1.03;;;0.57;;